Chatham, Canada
Current Conditions -  °F | °C
As of 1:00 AM on Saturday 29 Nov 2014 (Local Time) from CYCK Reporting Station
Overcast Overcast  
Wind Chill: 23°   Ceiling: 7000
Heat Index: 32°   Visibility: 9mi
Dew Point: 25°   Wind: 13mph
Humidity: 75%   Direction: 190°S
Pressure: 30.1"   Gusts: NA
Location:  42.4°N, 82.19°W
Report Text: CYCK 290600Z AUTO 19011KT 9SM OVC070 M00/M04 A3010 RMK SLP200
Loading
Personal Weather Stations






























Interactive Weather Map New forecast layout! Learn more

10-Day Weather Forecast

Advertisements
Track Severe Weather on mobile